.
WxDataArchive / Data Records for 2010-07-10
2010-07-09 July 2010 2010-07-11

Data Records for Saturday, 10 July 2010

Time	Temp	Chill	HIndex	Humid	Dewpt	 Wind 	HiWind	WindDir	Rain 	Barom 
-----	----	-----	------	-----	-----	------	------	-------	-----	----- 
00:00	71.1	71.1	71.1	83	65.7	0	0	---	0.00	29.969 
00:05	70.9	70.9	70.9	83	65.5	0	0	---	0.00	29.969 
00:10	70.8	70.8	70.8	84	65.7	0	0	---	0.00	29.969 
00:15	70.6	70.6	70.6	84	65.5	0	0	---	0.00	29.970 
00:20	70.4	70.4	70.4	85	65.7	0	0	---	0.00	29.970 
00:25	70.3	70.3	70.3	85	65.6	0	0	---	0.00	29.970 
00:30	70.3	70.3	70.3	86	65.9	0	0	---	0.00	29.971 
00:35	70.3	70.3	70.3	86	65.9	0	0	---	0.00	29.971 
00:40	70.4	70.4	70.4	86	66.0	0	0	---	0.00	29.971 
00:45	70.4	70.4	70.4	86	66.0	0	0	---	0.00	29.967 
00:50	70.3	70.3	70.3	86	65.9	0	0	---	0.00	29.967 
00:55	70.3	70.3	70.3	86	65.9	0	0	---	0.00	29.967 
01:00	70.1	70.1	70.1	86	65.7	0	0	---	0.00	29.966 
01:05	70.1	70.1	70.1	86	65.7	0	0	---	0.00	29.966 
01:10	70.1	70.1	70.1	86	65.7	0	0	---	0.00	29.966 
01:15	70.1	70.1	70.1	86	65.7	0	0	---	0.00	29.963 
01:20	69.9	69.9	69.9	87	65.8	0	0	---	0.00	29.963 
01:25	69.8	69.8	69.8	87	65.7	0	0	---	0.00	29.963 
01:30	69.6	69.6	69.6	87	65.6	0	0	---	0.00	29.962 
01:35	69.3	69.3	69.3	87	65.3	0	0	---	0.00	29.962 
01:40	69.1	69.1	69.1	87	65.1	0	0	---	0.00	29.962 
01:45	68.9	68.9	68.9	87	64.9	0	0	---	0.00	29.960 
01:50	68.8	68.8	68.8	88	65.1	0	0	---	0.00	29.960 
01:55	68.6	68.6	68.6	88	64.9	0	0	---	0.00	29.960 
02:00	68.4	68.4	68.4	89	65.0	0	0	---	0.00	29.962 
02:05	68.3	68.3	68.3	89	64.9	0	0	---	0.00	29.962 
02:10	68.1	68.1	68.1	89	64.7	0	0	---	0.00	29.962 
02:15	68.1	68.1	68.1	90	65.0	0	0	---	0.00	29.960 
02:20	67.9	67.9	67.9	90	64.9	0	0	---	0.00	29.960 
02:25	67.8	67.8	67.8	90	64.8	0	0	---	0.00	29.960 
02:30	67.6	67.6	67.6	90	64.6	0	0	---	0.00	29.961 
02:35	67.6	67.6	67.6	90	64.6	0	0	---	0.00	29.961 
02:40	67.4	67.4	67.4	90	64.4	0	0	---	0.00	29.961 
02:45	67.6	67.6	67.6	91	64.9	0	0	---	0.00	29.957 
02:50	67.6	67.6	67.6	90	64.6	0	0	---	0.00	29.957 
02:55	67.6	67.6	67.6	90	64.6	0	0	---	0.00	29.957 
03:00	67.4	67.4	67.4	90	64.4	0	0	---	0.00	29.955 
03:05	67.3	67.3	67.3	90	64.3	0	0	---	0.00	29.955 
03:10	67.1	67.1	67.1	90	64.1	0	0	---	0.00	29.955 
03:15	67.1	67.1	67.1	90	64.1	0	0	---	0.00	29.955 
03:20	66.9	66.9	66.9	90	63.9	0	0	---	0.00	29.955 
03:25	66.8	66.8	66.8	90	63.8	0	0	---	0.00	29.955 
03:30	66.6	66.6	66.6	90	63.6	0	0	---	0.00	29.954 
03:39	66.6	66.6	66.6	90	63.6	0	0	---	0.00	29.954 
03:40	66.4	66.4	66.4	91	63.7	0	0	---	0.00	29.954 
03:45	66.3	66.3	66.3	91	63.6	0	0	---	0.00	29.955 
03:50	66.1	66.1	66.1	91	63.4	0	0	---	0.00	29.955 
03:55	66.1	66.1	66.1	91	63.4	0	0	---	0.00	29.955 
04:00	66.0	66.0	66.0	91	63.3	0	0	---	0.00	29.958 
04:05	66.0	66.0	66.0	92	63.6	0	0	---	0.00	29.958 
04:10	65.8	65.8	65.8	92	63.4	0	0	---	0.00	29.958 
04:15	65.8	65.8	65.8	92	63.4	0	0	---	0.00	29.958 
04:20	65.6	65.6	65.6	92	63.2	0	0	---	0.00	29.958 
04:25	65.5	65.5	65.5	92	63.1	0	0	---	0.00	29.958 
04:30	65.5	65.5	65.5	92	63.1	0	0	---	0.00	29.962 
04:35	65.3	65.3	65.3	92	62.9	0	0	---	0.00	29.962 
04:40	65.3	65.3	65.3	92	62.9	0	0	---	0.00	29.962 
04:45	65.3	65.3	65.3	92	62.9	0	0	---	0.00	29.965 
04:50	65.3	65.3	65.3	92	62.9	0	0	---	0.00	29.965 
04:55	65.2	65.2	65.2	92	62.8	0	0	---	0.00	29.965 
05:00	65.2	65.2	65.2	92	62.8	0	0	---	0.00	29.968 
05:05	65.2	65.2	65.2	92	62.8	0	0	---	0.00	29.968 
05:10	65.0	65.0	65.0	92	62.6	0	0	---	0.00	29.968 
05:15	64.8	64.8	64.8	92	62.4	0	0	---	0.00	29.970 
05:20	64.8	64.8	64.8	92	62.4	0	0	---	0.00	29.970 
05:25	64.7	64.7	64.7	92	62.3	0	0	---	0.00	29.970 
05:30	64.7	64.7	64.7	92	62.3	0	0	---	0.00	29.970 
05:35	64.5	64.5	64.5	92	62.1	0	0	---	0.00	29.970 
05:40	64.3	64.3	64.3	92	61.9	0	0	---	0.00	29.970 
05:45	64.3	64.3	64.3	92	61.9	0	0	---	0.00	29.972 
05:50	64.3	64.3	64.3	92	61.9	0	0	---	0.00	29.972 
05:55	64.2	64.2	64.2	92	61.8	0	0	---	0.00	29.972 
06:00	64.2	64.2	64.2	92	61.8	0	0	---	0.00	29.976 
06:05	64.2	64.2	64.2	92	61.8	0	0	---	0.00	29.976 
06:10	64.0	64.0	64.0	92	61.6	0	0	---	0.00	29.976 
06:15	64.0	64.0	64.0	92	61.6	0	0	---	0.00	29.980 
06:20	63.9	63.9	63.9	92	61.5	0	0	---	0.00	29.980 
06:25	63.9	63.9	63.9	92	61.5	0	0	---	0.00	29.980 
06:30	63.7	63.7	63.7	92	61.3	0	0	---	0.00	29.980 
06:35	63.7	63.7	63.7	93	61.6	0	0	---	0.00	29.980 
06:40	63.7	63.7	63.7	93	61.6	0	0	---	0.00	29.980 
06:45	63.5	63.5	63.5	93	61.4	0	0	---	0.00	29.981 
06:50	63.5	63.5	63.5	93	61.4	0	0	---	0.00	29.981 
06:55	63.5	63.5	63.5	93	61.4	0	0	---	0.00	29.981 
07:00	63.5	63.5	63.5	93	61.4	0	0	---	0.00	29.981 
07:05	63.5	63.5	63.5	93	61.4	0	0	---	0.00	29.981 
07:10	63.7	63.7	63.7	93	61.6	0	0	---	0.00	29.981 
07:15	63.9	63.9	63.9	93	61.8	0	0	---	0.00	29.984 
07:20	64.0	64.0	64.0	94	62.2	0	0	---	0.00	29.984 
07:25	64.3	64.3	64.3	94	62.5	0	0	---	0.00	29.984 
07:30	64.8	64.8	64.8	94	63.0	0	0	---	0.00	29.986 
07:35	65.3	65.3	65.3	93	63.2	0	0	---	0.00	29.986 
07:40	65.8	65.8	65.8	93	63.7	0	0	---	0.00	29.986 
07:45	66.3	66.3	66.3	92	63.9	0	0	---	0.00	29.988 
07:50	66.6	66.6	66.6	91	63.9	0	0	---	0.00	29.988 
07:55	67.3	67.3	67.3	89	63.9	0	0	---	0.00	29.988 
08:00	67.8	67.8	67.8	87	63.8	0	0	---	0.00	29.990 
08:05	68.4	68.4	68.4	84	63.4	0	0	---	0.00	29.990 
08:10	69.1	69.1	69.1	83	63.7	0	0	---	0.00	29.990 
08:15	69.6	69.6	69.6	80	63.1	0	0	---	0.00	29.994 
08:20	70.4	70.4	70.4	80	63.9	0	0	---	0.00	29.994 
08:25	71.1	71.1	71.1	75	62.8	0	0	---	0.00	29.994 
08:30	71.6	71.6	71.6	74	62.9	0	0	---	0.00	29.995 
08:35	72.3	72.3	72.3	72	62.8	0	0	---	0.00	29.995 
08:40	72.7	72.7	72.7	71	62.7	0	0	---	0.00	29.995 
08:45	72.8	72.8	72.8	70	62.4	0	0	---	0.00	29.994 
08:50	73.0	73.0	73.0	69	62.2	0	0	---	0.00	29.994 
08:55	73.5	73.5	73.5	69	62.7	0	0	---	0.00	29.994 
09:00	73.9	73.9	73.9	68	62.7	0	0	---	0.00	29.998 
09:05	74.9	74.9	74.9	66	62.8	0	0	---	0.00	29.998 
09:10	75.8	75.8	77.6	67	64.0	0	0	---	0.00	29.998 
09:15	76.7	76.7	78.5	62	62.7	0	0	---	0.00	29.998 
09:20	77.7	77.7	79.3	57	61.2	0	0	---	0.00	29.998 
09:25	78.3	78.3	80.0	60	63.2	0	0	---	0.00	29.998 
09:30	78.6	78.6	80.3	60	63.5	0	0	---	0.00	29.998 
09:35	78.6	78.6	80.1	58	62.6	0	0	---	0.00	29.998 
09:40	78.6	78.6	80.0	56	61.6	0	0	---	0.00	29.998 
09:45	79.4	79.4	80.7	55	61.8	0	0	---	0.00	29.995 
09:50	79.8	79.8	81.0	54	61.7	0	1	0	0.00	29.995 
09:55	79.9	79.9	80.8	51	60.1	0	0	---	0.00	29.995 
10:00	80.3	80.3	81.4	53	61.6	0	0	---	0.00	29.990 
10:05	80.7	80.7	81.4	50	60.3	0	0	---	0.00	29.990 
10:10	80.5	80.5	81.2	49	59.6	0	0	---	0.00	29.990 
10:15	80.7	80.7	81.4	50	60.3	0	0	---	0.00	29.992 
10:20	80.9	80.9	81.6	50	60.5	0	0	---	0.00	29.992 
10:25	80.7	80.7	81.2	48	59.2	0	0	---	0.00	29.992 
10:30	81.1	81.1	81.5	47	58.9	0	2	112	0.00	29.992 
10:35	81.4	81.4	81.5	45	58.0	0	0	---	0.00	29.992 
10:40	81.4	81.4	81.8	47	59.2	0	0	---	0.00	29.992 
10:45	81.4	81.4	81.4	44	57.4	0	0	---	0.00	29.992 
10:50	81.4	81.4	81.0	40	54.7	0	0	---	0.00	29.992 
10:55	81.4	81.4	81.4	44	57.4	0	0	---	0.00	29.992 
11:00	82.0	82.0	81.7	42	56.6	0	0	---	0.00	29.990 
11:05	82.0	82.0	81.5	40	55.3	0	0	---	0.00	29.990 
11:10	82.2	82.2	81.7	41	56.1	1	3	90	0.00	29.990 
11:15	82.8	82.8	82.3	41	56.7	1	3	90	0.00	29.990 
11:20	83.0	83.0	83.1	45	59.4	0	1	90	0.00	29.990 
11:25	83.4	83.4	82.7	40	56.5	1	4	90	0.00	29.990 
11:30	83.2	83.2	83.0	43	58.3	1	4	90	0.00	29.990 
11:35	83.0	83.0	82.6	42	57.5	0	1	90	0.00	29.990 
11:40	83.0	83.0	82.6	42	57.5	0	1	90	0.00	29.990 
11:45	83.0	83.0	82.6	42	57.5	0	1	90	0.00	29.992 
11:50	83.0	83.0	82.1	38	54.7	1	2	90	0.00	29.992 
11:55	83.6	83.6	83.0	41	57.4	0	2	90	0.00	29.992 
12:00	83.6	83.6	83.4	43	58.7	0	1	90	0.00	29.991 
12:05	83.8	83.8	82.7	37	54.7	1	2	90	0.00	29.991 
12:10	83.8	83.8	82.9	39	56.2	0	1	90	0.00	29.991 
12:15	84.0	84.0	82.7	36	54.1	0	1	90	0.00	29.992 
12:20	84.7	84.7	84.0	40	57.7	0	1	90	0.00	29.992 
12:25	84.5	84.5	83.6	39	56.8	0	2	90	0.00	29.992 
12:30	84.1	84.1	83.4	40	57.1	0	2	68	0.00	29.992 
12:35	84.1	84.1	83.2	39	56.4	1	3	338	0.00	29.992 
12:40	84.3	84.3	83.6	40	57.3	0	1	22	0.00	29.992 
12:45	84.5	84.5	83.5	38	56.1	0	3	22	0.00	29.992 
12:50	84.5	84.5	83.5	38	56.1	0	2	0	0.00	29.992 
12:55	84.5	84.5	83.6	39	56.8	0	2	338	0.00	29.992 
13:00	84.5	84.5	83.3	37	55.3	1	3	315	0.00	29.993 
13:05	84.1	84.1	82.7	35	53.5	2	4	270	0.00	29.993 
13:10	84.1	84.1	82.8	36	54.2	1	3	270	0.00	29.993 
13:15	84.7	84.7	83.2	35	54.0	1	3	270	0.00	29.994 
13:20	84.9	84.9	83.6	36	54.9	1	3	112	0.00	29.994 
13:25	84.9	84.9	83.7	37	55.7	1	3	0	0.00	29.994 
13:30	84.5	84.5	83.3	37	55.3	1	3	315	0.00	29.993 
13:35	84.3	84.3	83.3	38	55.9	1	3	315	0.00	29.993 
13:40	83.6	83.6	82.9	40	56.7	0	2	315	0.00	29.993 
13:45	84.0	84.0	83.4	41	57.7	1	4	270	0.00	29.991 
13:50	84.0	84.0	83.3	40	57.0	0	2	292	0.00	29.991 
13:55	84.3	84.3	83.8	41	58.0	0	4	292	0.00	29.991 
14:00	84.7	84.7	84.2	41	58.4	0	2	292	0.00	29.990 
14:05	84.9	84.9	83.9	38	56.4	0	3	292	0.00	29.990 
14:10	85.1	85.1	84.6	41	58.7	0	2	292	0.00	29.990 
14:15	85.5	85.5	84.9	40	58.4	0	2	292	0.00	29.985 
14:20	85.1	85.1	84.4	40	58.0	0	1	315	0.00	29.985 
14:25	84.9	84.9	84.4	41	58.5	0	2	315	0.00	29.985 
14:30	85.3	85.3	84.3	38	56.8	0	1	315	0.00	29.981 
14:35	85.5	85.5	84.5	38	57.0	1	4	292	0.00	29.981 
14:40	85.1	85.1	83.9	37	55.9	1	2	292	0.00	29.981 
14:45	84.7	84.7	84.2	41	58.4	0	1	292	0.00	29.979 
14:50	84.7	84.7	84.2	41	58.4	1	2	292	0.00	29.979 
14:55	85.1	85.1	83.8	36	55.1	1	3	292	0.00	29.979 
15:00	85.3	85.3	84.5	39	57.5	1	3	315	0.00	29.976 
15:05	85.5	85.5	84.3	37	56.2	1	2	292	0.00	29.976 
15:10	85.7	85.7	85.1	40	58.6	0	2	315	0.00	29.976 
15:15	86.1	86.1	84.8	36	56.0	0	2	315	0.00	29.969 
15:20	86.5	86.5	86.0	40	59.3	0	1	315	0.00	29.969 
15:25	86.3	86.3	85.8	40	59.1	0	1	315	0.00	29.969 
15:30	86.3	86.3	85.0	36	56.2	1	5	315	0.00	29.967 
15:35	86.5	86.5	85.4	37	57.1	0	2	270	0.00	29.967 
15:40	86.5	86.5	85.4	37	57.1	0	2	270	0.00	29.967 
15:45	86.5	86.5	85.8	39	58.6	0	1	270	0.00	29.966 
15:50	86.7	86.7	85.4	36	56.5	0	2	270	0.00	29.966 
15:55	86.7	86.7	85.6	37	57.3	0	2	270	0.00	29.966 
16:00	86.5	86.5	85.0	35	55.6	1	2	292	0.00	29.964 
16:05	86.5	86.5	85.4	37	57.1	1	3	0	0.00	29.964 
16:10	85.9	85.9	84.4	35	55.0	0	2	270	0.00	29.964 
16:15	85.9	85.9	85.5	41	59.4	0	1	315	0.00	29.964 
16:20	86.3	86.3	85.2	37	56.9	0	1	315	0.00	29.964 
16:25	86.5	86.5	85.8	39	58.6	0	2	315	0.00	29.964 
16:30	86.7	86.7	86.0	39	58.7	0	1	315	0.00	29.962 
16:35	86.3	86.3	85.8	40	59.1	1	3	270	0.00	29.962 
16:40	85.7	85.7	84.7	38	57.1	1	3	270	0.00	29.962 
16:45	85.3	85.3	84.8	41	58.9	0	2	315	0.00	29.960 
16:50	85.1	85.1	84.1	38	56.6	0	2	315	0.00	29.960 
16:55	84.7	84.7	83.8	39	57.0	0	2	315	0.00	29.960 
17:00	84.7	84.7	84.0	40	57.7	0	2	315	0.00	29.950 
17:05	84.9	84.9	84.6	42	59.2	0	1	315	0.00	29.950 
17:10	85.1	85.1	84.4	40	58.0	0	0	---	0.00	29.950 
17:15	85.5	85.5	84.7	39	57.7	0	1	315	0.00	29.950 
17:20	86.1	86.1	85.6	40	58.9	0	1	315	0.00	29.950 
17:25	86.7	86.7	85.8	38	58.0	0	1	315	0.00	29.950 
17:30	87.0	87.0	86.0	37	57.5	0	2	315	0.00	29.944 
17:35	87.4	87.4	86.4	37	57.9	0	2	225	0.00	29.944 
17:40	86.5	86.5	85.4	37	57.1	0	2	225	0.00	29.944 
17:45	86.3	86.3	85.2	37	56.9	0	1	225	0.00	29.934 
17:50	86.7	86.7	85.2	35	55.7	0	1	225	0.00	29.934 
17:55	87.0	87.0	86.2	38	58.3	0	2	225	0.00	29.934 
18:00	86.3	86.3	85.4	38	57.7	0	1	248	0.00	29.935 
18:05	86.1	86.1	85.4	39	58.2	0	2	248	0.00	29.935 
18:10	86.1	86.1	85.8	41	59.6	0	1	248	0.00	29.935 
18:15	85.9	85.9	85.5	41	59.4	0	3	112	0.00	29.939 
18:20	85.5	85.5	84.9	40	58.4	0	1	68	0.00	29.939 
18:25	85.1	85.1	84.3	39	57.3	0	2	68	0.00	29.939 
18:30	84.9	84.9	84.2	40	57.8	0	1	45	0.00	29.934 
18:35	84.9	84.9	84.2	40	57.8	0	1	45	0.00	29.934 
18:40	84.9	84.9	84.0	39	57.1	1	2	22	0.00	29.934 
18:45	84.9	84.9	84.2	40	57.8	1	2	0	0.00	29.931 
18:50	84.7	84.7	84.2	41	58.4	0	2	0	0.00	29.931 
18:55	84.7	84.7	84.0	40	57.7	0	1	0	0.00	29.931 
19:00	84.3	84.3	83.4	39	56.6	0	1	0	0.00	29.925 
19:05	84.0	84.0	83.6	42	58.4	0	0	---	0.00	29.925 
19:10	83.8	83.8	83.4	42	58.2	0	0	---	0.00	29.925 
19:15	83.6	83.6	82.9	40	56.7	0	1	0	0.00	29.916 
19:20	83.4	83.4	83.0	42	57.9	0	1	0	0.00	29.916 
19:25	83.2	83.2	83.0	43	58.3	0	1	0	0.00	29.916 
19:30	83.2	83.2	83.1	44	59.0	0	0	---	0.00	29.917 
19:35	82.8	82.8	82.7	44	58.6	0	1	0	0.00	29.917 
19:40	82.6	82.6	82.7	45	59.1	0	1	0	0.00	29.917 
19:45	82.4	82.4	82.6	46	59.5	0	1	0	0.00	29.919 
19:50	82.2	82.2	82.4	46	59.3	0	1	0	0.00	29.919 
19:55	82.0	82.0	82.2	46	59.1	0	1	0	0.00	29.919 
20:00	81.8	81.8	82.1	47	59.6	0	0	---	0.00	29.927 
20:05	81.8	81.8	82.4	49	60.7	0	1	0	0.00	29.927 
20:10	81.8	81.8	82.4	49	60.7	0	1	0	0.00	29.927 
20:15	81.8	81.8	82.4	49	60.7	0	1	0	0.00	29.919 
20:20	81.8	81.8	82.4	49	60.7	0	2	0	0.00	29.919 
20:25	81.6	81.6	82.3	50	61.1	0	2	0	0.00	29.919 
20:30	81.6	81.6	82.3	50	61.1	0	2	338	0.00	29.912 
20:35	81.4	81.4	82.1	50	60.9	0	1	338	0.00	29.912 
20:40	81.2	81.2	81.9	50	60.8	0	1	338	0.00	29.912 
20:45	81.1	81.1	82.0	51	61.2	0	1	338	0.00	29.913 
20:50	80.9	80.9	81.8	51	61.0	0	0	---	0.00	29.913 
20:55	80.5	80.5	81.6	53	61.8	0	0	---	0.00	29.913 
21:00	80.3	80.3	81.4	53	61.6	0	1	338	0.00	29.916 
21:05	79.9	79.9	81.0	53	61.2	0	1	338	0.00	29.916 
21:10	79.8	79.8	81.0	54	61.7	0	0	---	0.00	29.916 
21:15	79.4	79.4	80.6	54	61.3	0	1	338	0.00	29.916 
21:20	79.2	79.2	80.4	54	61.1	0	1	338	0.00	29.916 
21:25	79.0	79.0	80.3	54	60.9	0	2	338	0.00	29.916 
21:30	79.0	79.0	80.4	56	61.9	0	1	338	0.00	29.922 
21:35	78.8	78.8	80.2	56	61.8	0	1	338	0.00	29.922 
21:40	78.5	78.5	80.0	57	62.0	0	0	---	0.00	29.922 
21:45	78.3	78.3	79.8	57	61.8	0	0	---	0.00	29.920 
21:50	78.1	78.1	79.7	58	62.1	0	1	338	0.00	29.920 
21:55	77.9	77.9	79.5	59	62.4	0	0	---	0.00	29.920 
22:00	77.6	77.6	79.3	59	62.1	0	0	---	0.00	29.925 
22:05	77.2	77.2	79.0	61	62.7	0	0	---	0.00	29.925 
22:10	76.8	76.8	78.6	61	62.3	0	0	---	0.00	29.925 
22:15	76.8	76.8	78.6	62	62.8	0	0	---	0.00	29.927 
22:20	76.7	76.7	78.5	62	62.7	0	0	---	0.00	29.927 
22:25	76.3	76.3	78.2	63	62.8	0	0	---	0.00	29.927 
22:30	76.1	76.1	78.0	63	62.6	0	0	---	0.00	29.938 
22:35	76.0	76.0	77.9	64	62.9	0	0	---	0.00	29.938 
22:40	76.0	76.0	77.9	65	63.4	0	0	---	0.00	29.938 
22:45	75.6	75.6	77.5	65	63.0	0	0	---	0.00	29.937 
22:50	75.3	75.3	77.3	65	62.7	0	0	---	0.00	29.937 
22:55	75.1	75.1	77.1	66	62.9	0	0	---	0.00	29.937 
23:00	74.7	74.7	74.7	67	63.0	0	0	---	0.00	29.938 
23:05	74.4	74.4	74.4	68	63.1	0	0	---	0.00	29.938 
23:10	74.2	74.2	74.2	69	63.4	0	0	---	0.00	29.938 
23:15	73.9	73.9	73.9	69	63.1	0	0	---	0.00	29.927 
23:20	73.5	73.5	73.5	70	63.1	0	0	---	0.00	29.927 
23:25	73.3	73.3	73.3	71	63.3	0	0	---	0.00	29.927 
23:30	73.0	73.0	73.0	72	63.4	0	0	---	0.00	29.926 
23:35	72.8	72.8	72.8	73	63.6	0	0	---	0.00	29.926 
23:40	72.7	72.7	72.7	73	63.5	0	0	---	0.00	29.926 
23:45	72.5	72.5	72.5	74	63.7	0	0	---	0.00	29.931 
23:50	72.3	72.3	72.3	75	63.9	0	0	---	0.00	29.931 
23:55	72.1	72.1	72.1	76	64.1	0	0	---	0.00	29.931 

CoCoRaHS
IN-AL-39
A2 Web Hosting
Creative Commons License
GoDaddy
search engine by freefind advanced

loaded 2018-11-19 19:46:44 • last modified 2010-11-18 10:43:29
Privacy PolicyDisclaimer
• wx.awcolley.com is powered by PmWiki v.2002016 •
• all content (unless otherwise noted) © 2018 A W Colley